Terminal Aerodrome Forecast
Issued by NWS Spokane, WA

Home | Current Version | Previous Version | Text Only | Print | Product List | Glossary On
Versions: 1 2 3 4 5 6 7 8 9 10 11 12 13 14 15 16 17 18 19 20 21 22 23 24 25 26 27 28 29 30 31 32
000
FTUS46 KOTX 161122
TAFGEG
TAF
KGEG 161122Z 1612/1712 23005KT 5SM BR OVC006
     FM161300 21004KT 1/4SM FZFG OVC003
     FM162100 20003KT 1SM BR OVC005
     FM170000 19004KT 5SM BR OVC007
     FM170500 16004KT 1/2SM FZFG OVC003=

USA.gov is the U.S. government's official web portal to all federal, state and local government web resources and services.